Time;durP1;ratioP1;P1;durP2;ratioP2;P2;SDS_P1;SDS_P2;PMS_P1;PMS_P2;Temp;Humidity;BMP_temperature;BMP_pressure;BME280_temperature;BME280_humidity;BME280_pressure;Samples;Min_cycle;Max_cycle;Signal;HPM_P1;HPM_P2
2021/05/23 00:01:05;;;;;;;11.60;7.15;;;;;;;16.94;62.76;99560.63;5091553;28;20387;-58
2021/05/23 00:03:30;;;;;;;12.75;6.95;;;;;;;16.89;64.00;99563.53;5092162;28;20507;-59
2021/05/23 00:05:56;;;;;;;10.35;6.20;;;;;;;16.93;64.04;99558.91;5092055;28;20107;-58
2021/05/23 00:08:22;;;;;;;8.38;6.18;;;;;;;16.85;64.99;99557.59;5074055;28;20024;-58
2021/05/23 00:10:53;;;;;;;9.75;6.30;;;;;;;16.86;64.76;99556.63;5091885;28;20036;-59
2021/05/23 00:13:25;;;;;;;10.05;6.07;;;;;;;16.76;66.01;99562.59;5072095;28;20081;-58
2021/05/23 00:16:14;;;;;;;14.75;7.03;;;;;;;16.76;66.09;99563.44;5091509;28;20379;-59
2021/05/23 00:18:43;;;;;;;13.20;6.93;;;;;;;16.76;64.93;99563.44;5091165;28;20126;-59
2021/05/23 00:21:11;;;;;;;12.43;7.30;;;;;;;16.68;65.77;99557.78;5074151;28;20024;-59
2021/05/23 00:23:37;;;;;;;12.73;7.00;;;;;;;16.67;65.89;99564.00;5073745;28;20032;-59
2021/05/23 00:26:03;;;;;;;11.95;6.53;;;;;;;16.69;66.31;99556.84;5091040;28;20151;-59
2021/05/23 00:28:30;;;;;;;12.85;7.00;;;;;;;16.64;65.85;99545.69;5073930;28;20509;-59
2021/05/23 00:30:57;;;;;;;10.18;6.47;;;;;;;16.67;65.46;99542.84;5075029;28;20028;-59
2021/05/23 00:33:22;;;;;;;13.18;6.38;;;;;;;16.66;66.20;99551.72;5092208;28;20483;-59
2021/05/23 00:35:48;;;;;;;9.70;6.95;;;;;;;16.66;66.26;99551.72;5092303;28;20027;-58
2021/05/23 00:38:15;;;;;;;10.32;6.28;;;;;;;16.64;66.93;99545.69;5092541;28;20088;-59
2021/05/23 00:40:41;;;;;;;9.25;7.10;;;;;;;16.78;65.12;99545.66;5074156;28;20103;-58
2021/05/23 00:43:13;;;;;;;9.15;7.03;;;;;;;16.85;63.95;99556.75;5092090;28;20069;-58
2021/05/23 00:45:38;;;;;;;13.82;6.90;;;;;;;16.82;63.75;99567.50;5058335;28;20430;-58
2021/05/23 00:48:05;;;;;;;8.88;7.20;;;;;;;16.80;63.60;99570.25;5075557;28;20483;-58
2021/05/23 00:50:31;;;;;;;10.80;6.68;;;;;;;16.71;64.29;99562.03;5077990;28;20020;-58
2021/05/23 00:52:59;;;;;;;11.23;6.95;;;;;;;16.70;64.58;99563.81;5095866;28;20020;-59
2021/05/23 00:55:25;;;;;;;8.02;6.10;;;;;;;16.66;64.92;99547.28;5094632;28;20024;-58
2021/05/23 00:57:51;;;;;;;11.55;6.43;;;;;;;16.62;64.92;99556.38;5095190;28;20043;-58
2021/05/23 01:00:44;;;;;;;13.80;6.45;;;;;;;16.60;64.73;99552.94;5095398;28;20108;-57
2021/05/23 01:03:30;;;;;;;9.40;5.60;;;;;;;16.52;65.11;99554.38;5033676;28;20055;-59
2021/05/23 01:06:04;;;;;;;12.63;6.10;;;;;;;16.56;65.00;99555.88;5080753;28;20044;-58
2021/05/23 01:08:31;;;;;;;8.77;5.93;;;;;;;16.42;65.88;99549.66;5078214;28;20119;-58
2021/05/23 01:11:05;;;;;;;7.63;4.57;;;;;;;16.40;65.65;99551.53;5076935;28;20390;-58
2021/05/23 01:13:34;;;;;;;9.43;4.15;;;;;;;16.41;63.61;99553.25;5096217;28;20085;-59
2021/05/23 01:16:05;;;;;;;6.15;3.35;;;;;;;16.41;63.47;99555.91;5095495;28;20049;-59
2021/05/23 01:18:43;;;;;;;5.25;3.08;;;;;;;16.31;62.10;99557.38;5095320;28;20496;-59
2021/05/23 01:21:10;;;;;;;7.03;3.20;;;;;;;16.34;62.14;99559.00;5095733;28;20047;-58
2021/05/23 01:23:43;;;;;;;4.85;3.10;;;;;;;16.28;62.35;99565.47;5095125;28;20028;-59
2021/05/23 01:26:11;;;;;;;;;;;;;;;16.25;62.57;99545.41;5095484;28;20225;-58
2021/05/23 01:28:45;;;;;;;4.60;2.92;;;;;;;16.26;62.13;99548.88;5077797;28;20390;-59
2021/05/23 01:31:14;;;;;;;6.03;3.00;;;;;;;16.24;61.87;99548.13;5093891;28;20516;-58
2021/05/23 01:33:41;;;;;;;10.27;2.72;;;;;;;16.23;61.81;99557.00;5094965;28;20036;-59
2021/05/23 01:36:08;;;;;;;6.60;2.78;;;;;;;16.18;62.05;99545.84;5075967;28;20439;-59
2021/05/23 01:38:35;;;;;;;4.82;3.10;;;;;;;16.16;61.99;99543.31;5095595;28;20423;-58
2021/05/23 01:41:07;;;;;;;5.07;2.60;;;;;;;16.17;61.90;99544.16;5076972;28;20039;-59
2021/05/23 01:43:34;;;;;;;5.63;2.70;;;;;;;16.02;62.80;99538.84;5095495;28;20023;-58
2021/05/23 01:46:01;;;;;;;5.20;3.47;;;;;;;16.00;62.92;99547.81;5094931;28;20059;-59
2021/05/23 01:48:27;;;;;;;4.20;2.42;;;;;;;15.98;63.18;99539.13;5094093;28;20024;-59
2021/05/23 01:50:53;;;;;;;6.13;2.65;;;;;;;16.00;62.47;99534.59;5075112;28;20021;-59
2021/05/23 01:53:18;;;;;;;3.40;2.47;;;;;;;16.01;62.45;99529.22;5095153;28;20024;-58
2021/05/23 01:55:44;;;;;;;4.28;2.10;;;;;;;16.03;62.22;99529.97;5076816;28;20089;-58
2021/05/23 01:58:10;;;;;;;6.90;2.53;;;;;;;15.93;62.06;99519.13;5095101;28;20026;-59
2021/05/23 02:00:45;;;;;;;4.85;2.55;;;;;;;15.89;62.41;99517.59;5076254;28;20030;-60
2021/05/23 02:03:13;;;;;;;3.90;2.17;;;;;;;15.87;62.91;99514.22;5095497;28;20135;-58
2021/05/23 02:05:44;;;;;;;3.67;2.40;;;;;;;15.82;63.50;99518.06;5076832;28;20111;-58
2021/05/23 02:08:12;;;;;;;7.13;2.33;;;;;;;15.71;63.57;99527.44;5060260;28;20039;-59
2021/05/23 02:10:37;;;;;;;3.88;2.20;;;;;;;15.75;63.37;99525.47;5094954;28;20031;-58
2021/05/23 02:13:06;;;;;;;5.53;2.10;;;;;;;15.83;63.14;99525.88;5095128;28;20032;-59
2021/05/23 02:15:32;;;;;;;3.92;2.13;;;;;;;15.86;62.86;99535.44;5094889;28;20024;-58
2021/05/23 02:17:58;;;;;;;4.45;2.25;;;;;;;15.88;62.72;99528.25;5094941;28;20030;-58
2021/05/23 02:20:27;;;;;;;6.40;3.25;;;;;;;15.87;62.84;99516.84;5094762;28;20020;-58
2021/05/23 02:22:55;;;;;;;4.97;2.17;;;;;;;15.89;62.96;99527.31;5083529;28;20053;-58
2021/05/23 02:25:21;;;;;;;5.30;2.85;;;;;;;15.80;63.55;99519.94;5082853;28;20106;-59
2021/05/23 02:27:49;;;;;;;4.50;2.83;;;;;;;15.82;63.64;99508.34;5073256;28;20043;-59
2021/05/23 02:30:22;;;;;;;5.32;2.85;;;;;;;15.84;63.52;99506.47;5059883;28;20021;-58
2021/05/23 02:32:49;;;;;;;5.75;2.90;;;;;;;15.85;63.63;99508.16;5053589;28;20021;-58
2021/05/23 02:35:16;;;;;;;7.15;3.60;;;;;;;15.86;63.53;99509.88;5054386;28;20074;-58
2021/05/23 02:37:42;;;;;;;6.90;3.13;;;;;;;15.87;64.00;99518.63;5037493;28;20056;-58
2021/05/23 02:40:14;;;;;;;3.88;2.80;;;;;;;15.75;64.61;99514.91;5052701;28;20071;-59
2021/05/23 02:42:40;;;;;;;7.57;3.60;;;;;;;15.74;64.64;99516.69;5054328;28;20033;-58
2021/05/23 02:45:08;;;;;;;4.53;3.40;;;;;;;15.69;65.12;99509.97;5054027;28;20416;-57
2021/05/23 02:47:35;;;;;;;4.15;3.13;;;;;;;15.69;65.34;99512.63;5052813;28;20091;-58
2021/05/23 02:50:01;;;;;;;5.65;3.50;;;;;;;15.64;65.15;99520.78;5053665;28;20036;-59
2021/05/23 02:52:27;;;;;;;6.72;3.75;;;;;;;15.65;65.54;99513.75;5052485;28;20017;-59
2021/05/23 02:54:52;;;;;;;7.68;3.50;;;;;;;15.64;65.12;99515.50;5052605;28;20025;-58
2021/05/23 02:57:18;;;;;;;5.65;3.33;;;;;;;15.72;65.13;99513.28;5053846;28;20021;-58
2021/05/23 02:59:44;;;;;;;4.38;2.75;;;;;;;15.74;65.31;99516.69;5052086;28;20017;-59
2021/05/23 03:02:11;;;;;;;6.68;3.30;;;;;;;15.75;65.28;99515.75;5052088;28;20028;-59
2021/05/23 03:04:36;;;;;;;6.28;3.25;;;;;;;15.75;65.41;99513.09;5053940;28;20044;-58
2021/05/23 03:07:03;;;;;;;7.43;3.22;;;;;;;15.81;64.96;99519.84;5053655;28;20414;-58
2021/05/23 03:09:29;;;;;;;7.18;4.00;;;;;;;15.83;64.82;99515.31;5053195;28;20128;-58
2021/05/23 03:11:55;;;;;;;7.43;3.80;;;;;;;15.83;64.86;99509.22;5053684;28;20044;-58
2021/05/23 03:14:20;;;;;;;5.80;3.17;;;;;;;15.82;65.08;99507.50;5053184;28;20116;-58
2021/05/23 03:16:46;;;;;;;6.22;3.55;;;;;;;15.72;65.64;99515.91;5053502;28;20104;-58
2021/05/23 03:19:12;;;;;;;5.20;3.63;;;;;;;15.69;65.89;99513.47;5053543;28;20057;-57
2021/05/23 03:21:39;;;;;;;8.32;3.85;;;;;;;15.65;66.56;99522.50;5032004;28;20128;-58
2021/05/23 03:24:05;;;;;;;8.98;4.20;;;;;;;15.68;66.00;99527.59;5046653;28;20031;-58
2021/05/23 03:26:31;;;;;;;7.15;4.78;;;;;;;15.65;66.22;99522.50;5071448;28;20094;-59
2021/05/23 03:28:56;;;;;;;7.15;5.28;;;;;;;15.67;66.05;99525.06;5073158;28;20017;-59
2021/05/23 03:31:22;;;;;;;6.53;4.85;;;;;;;15.71;66.27;99519.50;5073588;28;20479;-59
2021/05/23 03:33:48;;;;;;;12.73;5.35;;;;;;;15.70;66.18;99523.09;5072921;28;20492;-58
2021/05/23 03:36:14;;;;;;;8.68;5.20;;;;;;;15.66;66.84;99532.13;5072781;28;20466;-57
2021/05/23 03:38:45;;;;;;;14.27;5.60;;;;;;;15.56;67.20;99539.75;5071337;28;20119;-58
2021/05/23 03:41:12;;;;;;;8.98;5.45;;;;;;;15.54;67.15;99538.13;5072735;28;20028;-58
2021/05/23 03:43:38;;;;;;;6.85;5.13;;;;;;;15.55;67.27;99530.09;5073021;28;20031;-58
2021/05/23 03:46:04;;;;;;;6.80;5.05;;;;;;;15.58;67.05;99523.81;5072689;28;20032;-60
2021/05/23 03:48:29;;;;;;;6.28;5.25;;;;;;;15.56;67.18;99530.94;5071645;28;20028;-58
2021/05/23 03:50:55;;;;;;;9.68;5.80;;;;;;;15.52;67.42;99529.44;5072647;28;20032;-59
2021/05/23 03:53:21;;;;;;;7.13;5.63;;;;;;;15.50;67.96;99536.59;5072691;28;20111;-59
2021/05/23 03:55:47;;;;;;;11.88;6.30;;;;;;;15.50;68.04;99533.97;5071452;28;20025;-59
2021/05/23 03:58:13;;;;;;;8.23;6.05;;;;;;;15.48;68.19;99535.81;5073066;28;20032;-59
2021/05/23 04:00:38;;;;;;;10.30;6.20;;;;;;;15.51;67.96;99535.66;5072561;28;20021;-59
2021/05/23 04:03:04;;;;;;;7.88;5.63;;;;;;;15.53;67.83;99542.56;5071476;28;20021;-58
2021/05/23 04:05:31;;;;;;;8.23;5.80;;;;;;;15.62;67.33;99540.31;5072545;28;20090;-58
2021/05/23 04:07:58;;;;;;;7.72;5.82;;;;;;;15.66;67.37;99536.53;5070973;28;20102;-58
2021/05/23 04:10:38;;;;;;;8.73;6.40;;;;;;;15.58;68.52;99542.28;5071040;28;20029;-58
2021/05/23 04:13:06;;;;;;;10.38;5.80;;;;;;;15.46;69.14;99537.69;5072303;28;20078;-59
2021/05/23 04:15:32;;;;;;;9.50;6.18;;;;;;;15.46;68.88;99540.34;5072592;28;20046;-58
2021/05/23 04:17:57;;;;;;;10.70;6.38;;;;;;;15.48;68.84;99546.38;5072359;28;20032;-57
2021/05/23 04:20:24;;;;;;;9.85;6.55;;;;;;;15.51;69.00;99548.84;5072335;28;20510;-58
2021/05/23 04:22:51;;;;;;;7.60;5.78;;;;;;;15.50;69.25;99555.06;5070542;28;20029;-58
2021/05/23 04:25:18;;;;;;;10.13;5.50;;;;;;;15.52;69.44;99547.91;5082253;28;20105;-58
2021/05/23 04:27:46;;;;;;;11.77;6.75;;;;;;;15.58;69.09;99555.47;5074161;28;20493;-59
2021/05/23 04:30:13;;;;;;;8.93;6.07;;;;;;;15.58;68.74;99558.13;5092850;28;20417;-58
2021/05/23 04:32:39;;;;;;;6.93;5.95;;;;;;;15.53;70.13;99568.06;5092698;28;20050;-58
2021/05/23 04:35:06;;;;;;;11.13;6.55;;;;;;;15.55;69.25;99561.78;5092682;28;20131;-59
2021/05/23 04:37:32;;;;;;;9.60;5.97;;;;;;;15.58;69.42;99563.41;5092747;28;20028;-60
2021/05/23 04:39:58;;;;;;;9.20;6.20;;;;;;;15.62;69.71;99569.34;5074412;28;20127;-59
2021/05/23 04:42:24;;;;;;;14.13;6.78;;;;;;;15.66;69.18;99561.16;5092120;28;20474;-59
2021/05/23 04:44:50;;;;;;;11.27;6.45;;;;;;;15.73;68.54;99572.22;5092101;28;20035;-59
2021/05/23 04:47:16;;;;;;;10.02;6.25;;;;;;;15.81;68.17;99575.31;5092348;28;20099;-58
2021/05/23 04:49:42;;;;;;;9.50;6.78;;;;;;;15.84;67.84;99568.97;5092323;28;20040;-58
2021/05/23 04:52:08;;;;;;;10.90;7.50;;;;;;;15.80;68.41;99568.31;5092269;28;20092;-58
2021/05/23 04:54:36;;;;;;;11.50;7.60;;;;;;;15.83;68.55;99577.84;5092496;28;20012;-57
2021/05/23 04:57:02;;;;;;;10.30;6.93;;;;;;;15.78;68.44;99582.56;5091927;28;20020;-59
2021/05/23 04:59:28;;;;;;;13.82;7.95;;;;;;;15.79;68.34;99589.50;5091838;28;20432;-59
2021/05/23 05:01:54;;;;;;;9.50;6.65;;;;;;;15.81;68.43;99591.16;5073749;28;20036;-59
2021/05/23 05:04:20;;;;;;;9.60;7.15;;;;;;;15.92;68.09;99593.13;5092227;28;20158;-58
2021/05/23 05:06:46;;;;;;;9.95;7.13;;;;;;;15.80;68.77;99589.44;5073810;28;20039;-59
2021/05/23 05:09:11;;;;;;;11.18;7.22;;;;;;;15.85;68.55;99597.94;5091869;28;20028;-59
2021/05/23 05:11:37;;;;;;;11.57;7.18;;;;;;;15.89;68.60;99599.47;5074314;28;20388;-60
2021/05/23 05:14:03;;;;;;;12.05;7.32;;;;;;;15.89;68.41;99586.25;5074032;28;20032;-60
2021/05/23 05:16:29;;;;;;;12.43;7.60;;;;;;;15.90;69.15;99593.22;5092230;28;20023;-59
2021/05/23 05:18:55;;;;;;;10.75;8.07;;;;;;;15.91;70.47;99596.75;5091967;28;20035;-58
2021/05/23 05:21:20;;;;;;;10.68;7.68;;;;;;;15.95;70.23;99598.25;5092180;28;20081;-58
2021/05/23 05:23:46;;;;;;;11.40;8.23;;;;;;;15.94;69.16;99604.50;5073738;28;20490;-59
2021/05/23 05:26:12;;;;;;;11.82;7.82;;;;;;;16.01;68.53;99602.34;5073652;28;20067;-59
2021/05/23 05:28:37;;;;;;;10.60;7.40;;;;;;;15.97;69.84;99612.22;5073462;28;20032;-59
2021/05/23 05:31:03;;;;;;;10.10;7.60;;;;;;;16.09;68.80;99610.66;5107839;28;20020;-59
2021/05/23 05:33:29;;;;;;;11.05;7.88;;;;;;;16.15;67.75;99612.06;5073659;28;20034;-58
2021/05/23 05:35:54;;;;;;;11.13;7.47;;;;;;;16.21;67.33;99606.44;5076410;28;20395;-61
2021/05/23 05:38:20;;;;;;;12.02;7.15;;;;;;;16.26;67.14;99607.88;5095535;28;20101;-59
2021/05/23 05:40:46;;;;;;;12.60;7.90;;;;;;;16.28;66.90;99616.56;5095613;28;20028;-59
2021/05/23 05:43:12;;;;;;;13.07;7.35;;;;;;;16.33;66.93;99624.22;5094651;28;20050;-58
2021/05/23 05:45:38;;;;;;;9.32;7.95;;;;;;;16.42;66.88;99626.28;5065357;28;20036;-59
2021/05/23 05:48:04;;;;;;;9.13;7.60;;;;;;;16.39;67.41;99623.81;5075223;28;20012;-59
2021/05/23 05:50:30;;;;;;;9.55;7.97;;;;;;;16.43;67.25;99625.34;5076916;28;20020;-58
2021/05/23 05:52:55;;;;;;;11.75;8.13;;;;;;;16.53;67.22;99630.09;5077287;28;20024;-59
2021/05/23 05:55:21;;;;;;;13.48;8.15;;;;;;;16.59;66.96;99630.56;5094822;28;20028;-58
2021/05/23 05:57:47;;;;;;;13.15;8.75;;;;;;;16.57;67.97;99629.78;5077099;28;20454;-59
2021/05/23 06:00:13;;;;;;;10.77;8.25;;;;;;;16.68;67.83;99634.44;5076851;28;20023;-58
2021/05/23 06:02:39;;;;;;;10.40;7.95;;;;;;;16.79;66.81;99626.69;5095232;28;20391;-59
2021/05/23 06:05:06;;;;;;;13.68;8.90;;;;;;;16.73;66.76;99634.16;5076485;28;20050;-58
2021/05/23 06:07:31;;;;;;;11.00;8.73;;;;;;;16.74;66.67;99639.38;5077015;28;20036;-59
2021/05/23 06:09:57;;;;;;;10.32;7.57;;;;;;;16.84;65.39;99623.78;5094861;28;20044;-58
2021/05/23 06:12:22;;;;;;;10.32;8.13;;;;;;;16.93;64.26;99632.97;5095098;28;20106;-59
2021/05/23 06:14:48;;;;;;;14.57;8.38;;;;;;;17.00;64.12;99629.84;5068978;28;20032;-59
2021/05/23 06:17:14;;;;;;;9.80;7.53;;;;;;;17.09;64.06;99635.50;5092287;28;20540;-59
2021/05/23 06:19:40;;;;;;;12.82;7.47;;;;;;;17.16;64.11;99640.34;5066183;28;20016;-59
2021/05/23 06:22:06;;;;;;;12.18;8.38;;;;;;;17.22;63.33;99645.25;5056915;28;20025;-58
2021/05/23 06:24:32;;;;;;;13.15;8.38;;;;;;;17.22;63.70;99644.38;5075498;28;20048;-59
2021/05/23 06:26:58;;;;;;;10.75;7.80;;;;;;;17.30;63.84;99642.09;5074938;28;20452;-59
2021/05/23 06:29:24;;;;;;;12.23;7.72;;;;;;;17.20;63.56;99652.41;5063655;28;20132;-59
2021/05/23 06:31:49;;;;;;;9.73;7.60;;;;;;;17.34;63.15;99648.03;5076645;28;20038;-58
2021/05/23 06:34:15;;;;;;;12.18;7.38;;;;;;;17.39;63.19;99651.28;5093029;28;20122;-59
2021/05/23 06:36:41;;;;;;;9.88;6.75;;;;;;;17.54;62.85;99650.28;5084770;28;20033;-59
2021/05/23 06:39:07;;;;;;;12.73;6.68;;;;;;;17.63;62.36;99648.81;5060365;28;20099;-58
2021/05/23 06:41:33;;;;;;;11.77;6.22;;;;;;;17.64;61.70;99654.97;5076093;28;20020;-58
2021/05/23 06:43:59;;;;;;;11.75;6.75;;;;;;;17.61;62.02;99655.19;5090189;28;20017;-58
2021/05/23 06:46:24;;;;;;;8.57;5.78;;;;;;;17.57;61.56;99651.88;5062029;28;20032;-58
2021/05/23 06:48:50;;;;;;;8.25;6.15;;;;;;;17.64;60.97;99657.63;5078886;28;20107;-59
2021/05/23 06:51:16;;;;;;;8.95;6.68;;;;;;;17.56;61.55;99658.97;5094242;28;20020;-58
2021/05/23 06:53:42;;;;;;;10.18;6.38;;;;;;;17.57;61.74;99660.66;5079679;28;20391;-59
2021/05/23 06:56:08;;;;;;;7.57;6.07;;;;;;;17.63;61.82;99663.88;5078257;28;20455;-59
2021/05/23 06:58:33;;;;;;;8.60;6.07;;;;;;;17.62;62.22;99662.16;5076131;28;20020;-59
2021/05/23 07:00:59;;;;;;;10.10;6.40;;;;;;;17.59;61.76;99660.56;5071323;28;20066;-59
2021/05/23 07:03:25;;;;;;;9.38;5.88;;;;;;;17.69;62.42;99656.38;5094044;28;20020;-59
2021/05/23 07:05:51;;;;;;;7.78;6.07;;;;;;;17.82;60.38;99667.03;5077655;28;20056;-58
2021/05/23 07:08:18;;;;;;;9.15;5.93;;;;;;;17.77;60.91;99671.78;5073857;28;20087;-58
2021/05/23 07:10:44;;;;;;;10.30;6.18;;;;;;;17.63;61.41;99675.28;5087993;28;20111;-57
2021/05/23 07:13:10;;;;;;;7.43;6.53;;;;;;;17.78;61.44;99673.47;5056903;28;20522;-57
2021/05/23 07:15:35;;;;;;;9.60;6.55;;;;;;;17.78;61.33;99670.84;5059614;28;20123;-58
2021/05/23 07:18:01;;;;;;;11.82;6.30;;;;;;;17.92;60.56;99668.16;5055551;28;20031;-57
2021/05/23 07:20:27;;;;;;;10.88;6.63;;;;;;;17.88;60.97;99671.97;5074401;28;20027;-59
2021/05/23 07:22:54;;;;;;;9.07;6.43;;;;;;;18.00;60.56;99672.09;5038869;28;20024;-58
2021/05/23 07:25:20;;;;;;;7.57;5.60;;;;;;;18.12;59.91;99679.22;5062944;28;20449;-58
2021/05/23 07:27:46;;;;;;;8.75;6.13;;;;;;;18.14;60.23;99685.31;5073294;28;20070;-59
2021/05/23 07:30:12;;;;;;;9.88;6.07;;;;;;;18.19;59.48;99675.25;5056359;28;20025;-59
2021/05/23 07:32:38;;;;;;;7.88;6.10;;;;;;;18.34;59.52;99693.72;5080663;28;20052;-59
2021/05/23 07:35:04;;;;;;;8.70;6.15;;;;;;;18.32;59.35;99692.03;5075039;28;20016;-58
2021/05/23 07:37:30;;;;;;;7.15;5.53;;;;;;;18.23;59.14;99700.56;5093072;28;20032;-58
2021/05/23 07:39:56;;;;;;;10.00;6.35;;;;;;;18.31;59.13;99698.25;5093325;28;20024;-59
2021/05/23 07:42:22;;;;;;;7.90;5.20;;;;;;;18.43;59.15;99699.25;5057625;28;20103;-58
2021/05/23 07:44:47;;;;;;;12.23;6.78;;;;;;;18.35;58.84;99692.75;5093269;28;20105;-59
2021/05/23 07:47:13;;;;;;;7.97;6.40;;;;;;;18.25;59.63;99695.16;5091563;28;20017;-59
2021/05/23 07:49:41;;;;;;;10.70;6.65;;;;;;;18.63;59.28;99697.06;5069786;28;20025;-59
2021/05/23 07:52:09;;;;;;;12.00;8.00;;;;;;;18.46;58.62;99703.50;5092867;28;20087;-58
2021/05/23 07:54:34;;;;;;;13.38;7.28;;;;;;;18.42;58.53;99697.56;5057452;28;20119;-58
2021/05/23 07:57:01;;;;;;;11.32;7.03;;;;;;;18.52;57.75;99708.38;5063248;28;20051;-58
2021/05/23 07:59:28;;;;;;;9.38;6.35;;;;;;;18.57;58.04;99708.91;5058565;28;20456;-58
2021/05/23 08:01:54;;;;;;;10.35;6.63;;;;;;;18.82;57.12;99707.25;5072240;28;20024;-59
2021/05/23 08:04:20;;;;;;;7.70;6.43;;;;;;;18.67;57.67;99706.50;5090401;28;20111;-58
2021/05/23 08:06:45;;;;;;;9.15;6.15;;;;;;;18.47;57.14;99705.22;5074746;28;20103;-59
2021/05/23 08:09:11;;;;;;;9.40;5.95;;;;;;;18.59;57.30;99707.00;5074466;28;20479;-59
2021/05/23 08:11:36;;;;;;;8.43;6.60;;;;;;;18.52;56.96;99705.75;5092674;28;20357;-59
2021/05/23 08:14:02;;;;;;;8.73;5.82;;;;;;;18.35;57.29;99708.66;5092743;28;20497;-59
2021/05/23 08:16:28;;;;;;;12.20;5.63;;;;;;;18.27;56.98;99711.84;5074419;28;20073;-59
2021/05/23 08:18:54;;;;;;;13.75;6.25;;;;;;;18.34;55.86;99712.28;5092236;28;20017;-58
2021/05/23 08:21:19;;;;;;;11.52;5.55;;;;;;;18.47;55.94;99723.75;5074401;28;20384;-58
2021/05/23 08:23:45;;;;;;;12.65;5.95;;;;;;;18.67;55.49;99731.22;5074081;28;20498;-58
2021/05/23 08:26:11;;;;;;;9.88;5.85;;;;;;;18.65;53.09;99730.47;5074100;28;20508;-59
2021/05/23 08:28:38;;;;;;;7.40;4.10;;;;;;;18.65;53.51;99733.13;5092220;28;20495;-58
2021/05/23 08:31:04;;;;;;;7.70;5.40;;;;;;;18.82;53.70;99741.72;5092508;28;20073;-58
2021/05/23 08:33:31;;;;;;;9.35;4.53;;;;;;;18.99;52.79;99740.63;5074390;28;20024;-59
2021/05/23 08:35:57;;;;;;;13.70;4.85;;;;;;;18.86;53.45;99757.38;5073957;28;20368;-59
2021/05/23 08:38:23;;;;;;;10.68;5.25;;;;;;;18.84;52.31;99747.84;5092316;28;20039;-59
2021/05/23 08:40:49;;;;;;;7.72;4.00;;;;;;;19.06;51.69;99752.50;5092341;28;20027;-58
2021/05/23 08:43:15;;;;;;;7.50;3.17;;;;;;;19.01;51.90;99757.28;5092317;28;20027;-57
2021/05/23 08:45:41;;;;;;;9.55;3.45;;;;;;;18.97;52.21;99761.97;5092334;28;20038;-58
2021/05/23 08:48:07;;;;;;;8.88;4.53;;;;;;;18.89;52.59;99758.13;5080617;28;20020;-59
2021/05/23 08:50:33;;;;;;;9.40;4.85;;;;;;;18.91;52.35;99770.34;5088737;28;20020;-59
2021/05/23 08:53:01;;;;;;;8.05;3.97;;;;;;;19.02;52.06;99753.69;5074156;28;20030;-59
2021/05/23 08:55:29;;;;;;;8.68;5.07;;;;;;;19.04;51.40;99749.13;5075044;28;20093;-59
2021/05/23 08:57:57;;;;;;;9.55;4.50;;;;;;;19.19;52.25;99752.50;5082943;28;20031;-57
2021/05/23 09:00:23;;;;;;;8.75;4.68;;;;;;;19.04;51.47;99749.13;5073963;28;20024;-59
2021/05/23 09:02:57;;;;;;;8.20;4.32;;;;;;;19.32;51.63;99748.03;5057854;28;20032;-58
2021/05/23 09:05:58;;;;;;;9.38;4.30;;;;;;;19.26;51.91;99758.25;5072032;28;20038;-58
2021/05/23 09:08:26;;;;;;;6.95;3.88;;;;;;;19.47;50.84;99754.06;4991060;28;20038;-58
2021/05/23 09:11:00;;;;;;;7.72;4.38;;;;;;;19.53;50.78;99755.47;4994491;28;20041;-59
2021/05/23 09:13:37;;;;;;;7.28;4.00;;;;;;;19.68;50.87;99751.69;4997631;28;20508;-58
2021/05/23 09:16:06;;;;;;;7.20;4.00;;;;;;;19.70;50.73;99757.78;5013634;28;20042;-58
2021/05/23 09:18:55;;;;;;;6.55;3.78;;;;;;;19.89;50.52;99759.97;4993875;28;20074;-58
2021/05/23 09:21:33;;;;;;;4.78;3.88;;;;;;;19.76;50.07;99757.34;4997375;28;20423;-58
2021/05/23 09:24:01;;;;;;;10.57;4.57;;;;;;;20.00;50.44;99751.22;5013922;28;20037;-58
2021/05/23 09:26:38;;;;;;;9.70;4.10;;;;;;;19.88;50.58;99766.25;4994615;28;20086;-58
2021/05/23 09:29:10;;;;;;;6.57;4.53;;;;;;;19.50;51.00;99763.63;4993648;28;20046;-58
2021/05/23 09:31:36;;;;;;;6.23;3.60;;;;;;;19.69;50.79;99755.22;5010340;28;20041;-58
2021/05/23 09:34:03;;;;;;;6.10;3.58;;;;;;;19.70;49.31;99767.53;5010369;28;20088;-58
2021/05/23 09:36:29;;;;;;;6.95;4.15;;;;;;;19.98;50.25;99750.50;4993888;28;20176;-58
2021/05/23 09:38:56;;;;;;;6.80;3.80;;;;;;;19.98;50.21;99750.50;4976999;28;20031;-58
2021/05/23 09:41:26;;;;;;;8.55;3.88;;;;;;;20.21;50.18;99747.94;4993987;28;20134;-58
2021/05/23 09:44:22;;;;;;;13.45;4.80;;;;;;;19.90;49.44;99755.53;5029760;28;20422;-57
2021/05/23 09:46:54;;;;;;;7.47;4.57;;;;;;;19.60;50.26;99762.88;5050644;28;20095;-58
2021/05/23 09:49:20;;;;;;;;;;;;;;;19.57;50.15;99762.22;5039818;28;20481;-59
2021/05/23 09:51:57;;;;;;;10.68;4.00;;;;;;;19.83;50.20;99760.41;5035113;28;19909;-58
2021/05/23 09:54:25;;;;;;;8.57;4.68;;;;;;;20.19;50.33;99757.84;5042178;28;20502;-59
2021/05/23 09:56:51;;;;;;;10.10;3.70;;;;;;;20.38;48.87;99760.84;5053004;28;20037;-59
2021/05/23 09:59:18;;;;;;;9.80;4.10;;;;;;;20.40;49.18;99771.34;5055196;28;20392;-57
2021/05/23 10:01:44;;;;;;;5.68;3.92;;;;;;;20.44;48.21;99759.53;5052009;28;20032;-58
2021/05/23 10:04:24;;;;;;;6.57;4.28;;;;;;;20.74;47.43;99768.88;5041805;28;20021;-57
2021/05/23 10:07:17;;;;;;;7.28;3.28;;;;;;;20.54;48.10;99767.69;5054959;28;20464;-58
2021/05/23 10:09:43;;;;;;;6.25;3.75;;;;;;;20.37;47.25;99769.78;5060352;28;20503;-59
2021/05/23 10:12:11;;;;;;;14.10;6.60;;;;;;;20.51;48.19;99774.91;5042388;28;20107;-58
2021/05/23 10:14:37;;;;;;;9.07;4.43;;;;;;;20.50;47.27;99772.34;5054990;28;20024;-58
2021/05/23 10:17:07;;;;;;;10.38;4.30;;;;;;;20.83;48.44;99779.66;5054638;28;20029;-58
2021/05/23 10:19:34;;;;;;;6.20;3.83;;;;;;;20.72;47.43;99773.47;5053944;28;20042;-58
2021/05/23 10:22:02;;;;;;;7.35;3.90;;;;;;;20.65;46.50;99781.06;5032867;28;20400;-58
2021/05/23 10:24:47;;;;;;;8.38;4.15;;;;;;;20.68;46.81;99791.44;5039467;28;20033;-57
2021/05/23 10:27:20;;;;;;;5.47;3.38;;;;;;;20.61;47.37;99782.22;5074668;28;20062;-58
2021/05/23 10:29:56;;;;;;;;;;;;;;;21.02;44.70;99770.25;5074959;28;20082;-57
2021/05/23 10:32:31;;;;;;;5.38;2.78;;;;;;;21.24;45.30;99782.75;5056429;28;20316;-57
2021/05/23 10:35:07;;;;;;;6.57;3.10;;;;;;;21.13;44.96;99780.94;5074554;28;20093;-57
2021/05/23 10:37:33;;;;;;;4.38;2.20;;;;;;;21.27;42.58;99771.88;5074582;28;20028;-58
2021/05/23 10:39:59;;;;;;;5.82;3.03;;;;;;;21.52;43.62;99776.16;5074494;28;20012;-58
2021/05/23 10:42:31;;;;;;;6.35;3.30;;;;;;;21.53;44.24;99771.69;5074571;28;20032;-57
2021/05/23 10:44:58;;;;;;;5.57;2.90;;;;;;;21.50;43.62;99772.75;5074180;28;20037;-58
2021/05/23 10:47:28;;;;;;;5.82;3.35;;;;;;;21.48;43.83;99773.84;5074174;28;20483;-58
2021/05/23 10:50:11;;;;;;;7.30;3.30;;;;;;;21.51;42.86;99771.81;5056323;28;20063;-58
2021/05/23 10:52:39;;;;;;;4.72;2.72;;;;;;;21.82;43.53;99776.50;5074013;28;20021;-58
2021/05/23 10:55:06;;;;;;;6.93;3.70;;;;;;;22.12;43.33;99778.50;5056338;28;20468;-57
2021/05/23 10:57:48;;;;;;;4.85;2.53;;;;;;;22.06;42.98;99779.00;5073906;28;20037;-58
2021/05/23 11:00:28;;;;;;;5.07;2.75;;;;;;;21.95;42.25;99772.72;5073976;28;20029;-58
2021/05/23 11:02:56;;;;;;;4.53;2.97;;;;;;;21.96;42.40;99779.72;5073739;28;20047;-58
2021/05/23 11:05:28;;;;;;;4.90;2.90;;;;;;;22.26;42.24;99770.22;5073768;28;20024;-59
2021/05/23 11:07:59;;;;;;;4.80;2.95;;;;;;;22.35;41.23;99770.47;5039608;28;20029;-59
2021/05/23 11:10:30;;;;;;;7.07;2.90;;;;;;;22.43;40.75;99770.69;5055561;28;20025;-58
2021/05/23 11:13:00;;;;;;;6.32;2.83;;;;;;;22.31;39.86;99762.72;5072149;28;20487;-59
2021/05/23 11:15:38;;;;;;;6.20;2.40;;;;;;;22.64;40.19;99771.56;5073101;28;20048;-58
2021/05/23 11:18:04;;;;;;;3.42;2.20;;;;;;;22.61;40.17;99769.13;5073609;28;20514;-59
2021/05/23 11:20:30;;;;;;;3.78;2.80;;;;;;;22.57;39.57;99767.72;5073290;28;20052;-58
2021/05/23 11:23:04;;;;;;;7.50;2.65;;;;;;;22.32;38.54;99769.72;5073366;28;20426;-58
2021/05/23 11:25:30;;;;;;;7.72;3.72;;;;;;;22.52;40.24;99775.22;5063243;28;20040;-58
2021/05/23 11:28:05;;;;;;;4.07;2.40;;;;;;;22.34;37.70;99761.59;5077281;28;20498;-58
2021/05/23 11:30:36;;;;;;;5.28;3.00;;;;;;;22.40;38.93;99762.94;5075229;28;20028;-58
2021/05/23 11:33:07;;;;;;;4.50;2.45;;;;;;;22.66;38.54;99755.41;5070895;28;20035;-58
2021/05/23 11:35:34;;;;;;;2.70;2.25;;;;;;;22.86;37.80;99743.91;5059132;28;20032;-58